Flight Track Log - Related Links

Times and Time Zones

All times are in EDT time to prevent confusion due to time zone crossing. See the AWE180 flight status page for this flight to view local times or setup timezone preferences in your user account.

Time Position Orientation Groundspeed Altitude Reporting Facility
EDT Latitude Longitude Course Direction KTS MPH feet Rate Location/Type
Tue 07:09:15 AM 29.9892 -95.3729 178° South  Level FlightAware Approximate
Tue 07:10:15 AM 29.9899 -95.4994 121° Southeast  Level FlightAware Approximate
Tue 07:11:10 AM 29.9219 -95.3708 226° Southwest 201 231 2,200  Level Houston Center
Tue 07:12:17 AM 29.8722 -95.4311 272° West 248 285 4,400 2,457 Climbing Houston Center
Tue 07:13:17 AM 29.8742 -95.5128 291° West 270 311 7,400 2,895 Climbing Houston Center
Tue 07:14:11 AM 29.8972 -95.5806 291° West 302 348 9,900 2,139 Climbing Houston Center
Tue 07:15:12 AM 29.9261 -95.6681 288° West 307 353 11,500 2,050 Climbing Houston Center
Tue 07:16:11 AM 29.9542 -95.7697 290° West 320 368 14,000 2,521 Climbing Houston Center
Tue 07:17:11 AM 29.9847 -95.8667 289° West 325 374 16,500 2,250 Climbing Houston Center
Tue 07:18:11 AM 30.0169 -95.9736 290° West 330 380 18,500 2,000 Climbing Houston Center
Tue 07:19:11 AM 30.0547 -96.0928 289° West 349 402 20,500 1,800 Climbing Houston Center
Tue 07:20:11 AM 30.0886 -96.2069 282° West 367 422 22,100 1,500 Climbing Houston Center
Tue 07:21:11 AM 30.1114 -96.3306 280° West 380 437 23,500 1,388 Climbing Houston Center
Tue 07:22:12 AM 30.1303 -96.4514 279° West 389 448 24,900 1,350 Climbing Houston Center
Tue 07:23:11 AM 30.1483 -96.5842 282° West 410 472 26,200 1,261 Climbing Houston Center
Tue 07:24:11 AM 30.1728 -96.7150 284° West 416 479 27,400 1,050 Climbing Houston Center
Tue 07:25:11 AM 30.2011 -96.8461 285° West 422 486 28,300 950 Climbing Houston Center
Tue 07:26:11 AM 30.2317 -96.9775 283° West 422 486 29,300 950 Climbing Houston Center
Tue 07:27:11 AM 30.2592 -97.1206 284° West 446 513 30,200 1,050 Climbing Houston Center
Tue 07:28:11 AM 30.2856 -97.2444 283° West 446 513 31,400 1,050 Climbing Houston Center
Tue 07:29:11 AM 30.3131 -97.3856 284° West 446 513 32,300 1,100 Climbing Houston Center
Tue 07:30:11 AM 30.3408 -97.5169 283° West 435 501 33,600 1,100 Climbing Houston Center
Tue 07:31:11 AM 30.3683 -97.6508 284° West 435 501 34,500 800 Climbing Houston Center
Tue 07:32:11 AM 30.3992 -97.7994 283° West 435 501 35,200 750 Climbing Houston Center
Tue 07:33:11 AM 30.4264 -97.9333 284° West 435 501 36,000 400 Climbing Houston Center
Tue 07:34:11 AM 30.4536 -98.0650 283° West 430 495 36,000  Level Houston Center
Tue 07:35:11 AM 30.4806 -98.1992 283° West 425 489 36,000  Level Houston Center
Tue 07:36:11 AM 30.5075 -98.3308 282° West 430 495 36,000  Level Houston Center
Tue 07:37:11 AM 30.5319 -98.4650 283° West 435 501 36,000  Level Houston Center
Tue 07:38:11 AM 30.5586 -98.5969 283° West 430 495 36,000  Level Houston Center
Tue 07:39:12 AM 30.5850 -98.7314 284° West 430 495 36,000  Level Houston Center
Tue 07:40:11 AM 30.6100 -98.8511 281° West 430 495 36,000  Level Houston Center
Tue 07:41:11 AM 30.6322 -98.9806 284° West 425 489 36,000  Level Houston Center
Tue 07:42:11 AM 30.6603 -99.1150 283° West 420 483 36,000  Level Houston Center
Tue 07:43:12 AM 30.6878 -99.2569 283° West 415 478 36,000 -50 Level Houston Center
Tue 07:44:11 AM 30.7136 -99.3917 281° West 421 484 35,900  Descending Houston Center
Tue 07:45:11 AM 30.7369 -99.5261 283° West 421 484 36,000 50 Climbing Houston Center
Tue 07:46:11 AM 30.7625 -99.6586 283° West 421 484 36,000  Level Houston Center
Tue 07:47:11 AM 30.7881 -99.7883 282° West 421 484 36,000 -50 Level Houston Center
Tue 07:48:11 AM 30.8133 -99.9233 281° West 421 484 35,900 -50 Descending Houston Center
Tue 07:49:11 AM 30.8364 -100.0581 283° West 421 484 35,900  Level Houston Center
Tue 07:50:12 AM 30.8614 -100.1881 282° West 421 484 35,900 50 Level Houston Center
Tue 07:51:11 AM 30.8861 -100.3231 282° West 421 484 36,000 50 Climbing Houston Center
Tue 07:52:12 AM 30.9092 -100.4508 280° West 421 484 36,000  Level Houston Center
Tue 07:53:12 AM 30.9311 -100.5903 282° West 426 490 36,000  Level Houston Center
Tue 07:54:11 AM 30.9558 -100.7208 283° West 426 490 36,000 -50 Level Houston Center
Tue 07:55:11 AM 30.9825 -100.8511 281° West 420 483 35,900 -50 Descending Houston Center
Tue 07:56:11 AM 31.0047 -100.9814 281° West 420 483 35,900  Level Houston Center
Tue 07:57:11 AM 31.0264 -101.1164 281° West 420 483 35,900  Level Houston Center
Tue 07:58:11 AM 31.0486 -101.2467 282° West 420 483 35,900 50 Level Houston Center
Tue 07:59:11 AM 31.0694 -101.3625 281° West 415 478 36,000 150 Climbing Houston Center
Tue 08:00:11 AM 31.0911 -101.4928 281° West 410 472 36,200 407 Climbing Houston Center
Tue 08:01:53 AM 31.1328 -101.7356 281° West 425 489 37,100 593 Climbing Albuquerque Center
Tue 08:02:53 AM 31.1531 -101.8628 281° West 425 489 37,800 450 Climbing Albuquerque Center
Tue 08:03:53 AM 31.1758 -101.9947 280° West 420 483 38,000 50 Climbing Albuquerque Center
Tue 08:04:53 AM 31.1961 -102.1267 284° West 420 483 37,900 -50 Descending Albuquerque Center
Tue 08:05:53 AM 31.2275 -102.2728 279° West 436 502 37,900  Level Albuquerque Center
Tue 08:06:53 AM 31.2456 -102.4053 280° West 436 502 37,900 50 Level Albuquerque Center
Tue 08:07:53 AM 31.2656 -102.5375 279° West 429 494 38,000 50 Climbing Albuquerque Center
Tue 08:08:53 AM 31.2828 -102.6603 281° West 429 494 38,000 -50 Level Albuquerque Center
Tue 08:09:53 AM 31.3047 -102.7903 280° West 424 488 37,900 -50 Descending Albuquerque Center
Tue 08:10:53 AM 31.3242 -102.9203 281° West 419 482 37,900  Level Albuquerque Center
Tue 08:11:53 AM 31.3456 -103.0528 280° West 419 482 37,900 50 Level Albuquerque Center
Tue 08:12:53 AM 31.3647 -103.1831 282° West 419 482 38,000 50 Climbing Albuquerque Center
Tue 08:13:53 AM 31.3881 -103.3156 279° West 419 482 38,000  Level Albuquerque Center
Tue 08:14:53 AM 31.4050 -103.4483 284° West 419 482 38,000  Level Albuquerque Center
Tue 08:15:53 AM 31.4322 -103.5808 278° West 419 482 38,000  Level Albuquerque Center
Tue 08:16:53 AM 31.4489 -103.7164 282° West 419 482 38,000  Level Albuquerque Center
Tue 08:17:53 AM 31.4739 -103.8589 280° West 419 482 38,000  Level Albuquerque Center
Tue 08:18:53 AM 31.4944 -103.9919 280° West 419 482 38,000 -50 Level Albuquerque Center
Tue 08:19:53 AM 31.5147 -104.1250 279° West 424 488 37,900 -50 Descending Albuquerque Center
Tue 08:20:53 AM 31.5328 -104.2556 280° West 424 488 37,900  Level Albuquerque Center
Tue 08:21:53 AM 31.5528 -104.3864 281° West 424 488 37,900 50 Level Albuquerque Center
Tue 08:22:53 AM 31.5747 -104.5194 280° West 424 488 38,000  Climbing Albuquerque Center
Tue 08:23:53 AM 31.5919 -104.6383 279° West 424 488 37,900 -50 Descending Albuquerque Center
Tue 08:24:53 AM 31.6097 -104.7742 279° West 424 488 37,900 50 Level Albuquerque Center
Tue 08:25:53 AM 31.6269 -104.9053 281° West 424 488 38,000 50 Climbing Albuquerque Center
Tue 08:26:53 AM 31.6483 -105.0386 280° West 424 488 38,000 -50 Level Albuquerque Center
Tue 08:27:53 AM 31.6675 -105.1722 280° West 424 488 37,900  Descending Albuquerque Center
Tue 08:28:53 AM 31.6867 -105.3058 279° West 424 488 38,000 50 Climbing Albuquerque Center
Tue 08:29:53 AM 31.7056 -105.4394 279° West 424 488 38,000 -50 Level Albuquerque Center
Tue 08:30:53 AM 31.7222 -105.5708 278° West 424 488 37,900  Descending Albuquerque Center
Tue 08:31:53 AM 31.7386 -105.7047 280° West 419 482 38,000 50 Climbing Albuquerque Center
Tue 08:32:53 AM 31.7592 -105.8361 281° West 419 482 38,000 -50 Level Albuquerque Center
Tue 08:33:53 AM 31.7817 -105.9675 282° West 419 482 37,900 -50 Descending Albuquerque Center
Tue 08:34:53 AM 31.8039 -106.0964 280° West 414 476 37,900 50 Level Albuquerque Center
Tue 08:35:53 AM 31.8239 -106.2256 281° West 409 471 38,000  Climbing Albuquerque Center
Tue 08:36:53 AM 31.8458 -106.3572 279° West 409 471 37,900 -50 Descending Albuquerque Center
Tue 08:37:53 AM 31.8636 -106.4867 281° West 409 471 37,900  Level Albuquerque Center
Tue 08:38:53 AM 31.8853 -106.6133 280° West 409 471 37,900 50 Level Albuquerque Center
Tue 08:39:53 AM 31.9047 -106.7428 280° West 409 471 38,000 50 Climbing Albuquerque Center
Tue 08:40:53 AM 31.9242 -106.8722 280° West 409 471 38,000 -50 Level Albuquerque Center
Tue 08:41:53 AM 31.9433 -106.9992 280° West 409 471 37,900 -50 Descending Albuquerque Center
Tue 08:42:53 AM 31.9625 -107.1286 280° West 409 471 37,900  Level Albuquerque Center
Tue 08:43:53 AM 31.9814 -107.2583 281° West 409 471 37,900 50 Level Albuquerque Center
Tue 08:44:53 AM 32.0022 -107.3881 280° West 409 471 38,000 50 Climbing Albuquerque Center
Tue 08:45:53 AM 32.0211 -107.5203 280° West 409 471 38,000 -50 Level Albuquerque Center
Tue 08:46:53 AM 32.0417 -107.6622 280° West 409 471 37,900 -50 Descending Albuquerque Center
Tue 08:47:53 AM 32.0619 -107.7919 279° West 409 471 37,900  Level Albuquerque Center
Tue 08:48:53 AM 32.0803 -107.9219 279° West 409 471 37,900 50 Level Albuquerque Center
Tue 08:49:53 AM 32.0983 -108.0519 281° West 409 471 38,000 50 Climbing Albuquerque Center
Tue 08:50:53 AM 32.1183 -108.1794 280° West 409 471 38,000  Level Albuquerque Center
Tue 08:51:53 AM 32.1361 -108.3044 281° West 409 471 38,000  Level Albuquerque Center
Tue 08:52:53 AM 32.1561 -108.4322 279° West 403 464 38,000  Level Albuquerque Center
Tue 08:53:53 AM 32.1717 -108.5478 279° West 398 458 38,000  Level Albuquerque Center
Tue 08:54:53 AM 32.1892 -108.6753 279° West 403 464 38,000  Level Albuquerque Center
Tue 08:55:53 AM 32.2064 -108.8056 279° West 403 464 38,000  Level Albuquerque Center
Tue 08:56:53 AM 32.2236 -108.9336 280° West 403 464 38,000  Level Albuquerque Center
Tue 08:57:53 AM 32.2425 -109.0639 279° West 403 464 38,000  Level Albuquerque Center
Tue 08:58:53 AM 32.2594 -109.1894 282° West 403 464 38,000  Level Albuquerque Center
Tue 08:59:53 AM 32.2825 -109.3200 286° West 403 464 38,000  Level Albuquerque Center
Tue 09:00:53 AM 32.3117 -109.4408 287° West 403 464 38,000  Level Albuquerque Center
Tue 09:01:53 AM 32.3428 -109.5644 285° West 397 457 38,000  Level Albuquerque Center
Tue 09:02:53 AM 32.3697 -109.6881 287° West 397 457 38,000  Level Albuquerque Center
Tue 09:03:53 AM 32.4006 -109.8094 286° West 392 451 38,000 -650 Level Albuquerque Center
Tue 09:04:53 AM 32.4314 -109.9356 286° West 392 451 36,700 -2,300 Descending Albuquerque Center
Tue 09:05:53 AM 32.4619 -110.0644 286° West 397 457 33,400 -2,950 Descending Albuquerque Center
Tue 09:06:53 AM 32.4944 -110.1958 285° West 408 470 30,800 -2,450 Descending Albuquerque Center
Tue 09:07:53 AM 32.5244 -110.3272 287° West 413 475 28,500 -2,350 Descending Albuquerque Center
Tue 09:08:53 AM 32.5606 -110.4664 286° West 413 475 26,100 -2,100 Descending Albuquerque Center
Tue 09:09:53 AM 32.5869 -110.5783 301° West 407 468 24,300 -1,750 Descending Albuquerque Center
Tue 09:10:53 AM 32.6422 -110.6864 305° West 392 451 22,600 -1,600 Descending Albuquerque Center
Tue 09:11:53 AM 32.7019 -110.7897 300° West 380 437 21,100 -1,550 Descending Albuquerque Center
Tue 09:12:53 AM 32.7553 -110.8981 303° West 380 437 19,500 -1,500 Descending Albuquerque Center
Tue 09:13:53 AM 32.8086 -110.9967 301° West 375 432 18,100 -1,450 Descending Albuquerque Center
Tue 09:14:53 AM 32.8597 -111.0975 300° West 368 423 16,600 -1,450 Descending Albuquerque Center
Tue 09:15:53 AM 32.9106 -111.2036 300° West 356 410 15,200 -1,400 Descending Albuquerque Center
Tue 09:16:53 AM 32.9556 -111.2972 299° West 340 391 13,800 -1,350 Descending Albuquerque Center
Tue 09:17:53 AM 32.9983 -111.3908 301° West 335 386 12,500 -1,250 Descending Albuquerque Center
Tue 09:18:53 AM 33.0411 -111.4769 303° West 322 371 11,300 -1,250 Descending Albuquerque Center
Tue 09:19:53 AM 33.0861 -111.5611 330° Northwest 310 357 10,000 -1,523 Descending Albuquerque Center
Tue 09:21:03 AM 33.1667 -111.6167 337° Northwest 308 354 8,000 -969 Descending Phoenix TRACON
Tue 09:22:03 AM 33.2333 -111.6500 337° Northwest 260 299 7,900 -700 Descending Phoenix TRACON
Tue 09:23:03 AM 33.3000 -111.6833 337° Northwest 259 298 6,600 -1,158 Descending Phoenix TRACON
Tue 09:23:57 AM 33.3667 -111.7167 337° Northwest 253 291 5,700 -1,000 Descending Phoenix TRACON

Login

Don't have an account? Register now (free) for customized features, flight alerts, and more!